Terminal Aerodrome Forecast
Issued by NWS

Home | Current Version | Previous Version | Text Only | Print | Product List | Glossary On
Versions: 1 2 3 4 5 6 7 8 9 10 11 12
116
FTUS45 KREV 260520
TAFMMH
TAF
KMMH 260520Z 2606/2706 VRB03KT P6SM VCSH SCT035 OVC060
     FM260900 VRB03KT P6SM SCT050 BKN080
     FM262000 30008KT P6SM VCSH SCT040 BKN070=

USA.gov is the U.S. government's official web portal to all federal, state and local government web resources and services.